Terminal Aerodrome Forecast
Issued by NWS Memphis, TN

Home | Current Version | Previous Version | Text Only | Print | Product List | Glossary On
Versions: 1 2 3 4 5 6 7 8 9 10 11 12 13 14
284
FTUS44 KMEG 281131
TAFMKL
TAF
KMKL 281131Z 2812/2912 00000KT P6SM SKC
     FM281500 25010KT P6SM FEW250
     FM282000 28012G20KT P6SM BKN060
     FM290000 35015G21KT P6SM SCT070
     FM290200 34008KT P6SM SKC
      AMD NOT SKED=

USA.gov is the U.S. government's official web portal to all federal, state and local government web resources and services.